createdAt,value
2019-03-27T00:02:31.458Z,101122.73
2019-03-27T00:05:04.432Z,101122.78
2019-03-27T00:07:37.075Z,101124.09
2019-03-27T00:10:11.298Z,101137.05
2019-03-27T00:12:43.854Z,101135.83
2019-03-27T00:15:18.337Z,101134.14
2019-03-27T00:17:51.157Z,101143.20
2019-03-27T00:20:24.083Z,101147.53
2019-03-27T00:22:56.666Z,101156.13
2019-03-27T00:25:29.351Z,101162.17
2019-03-27T00:28:02.004Z,101154.90
2019-03-27T00:30:34.818Z,101160.48
2019-03-27T00:33:07.762Z,101164.36
2019-03-27T00:35:40.567Z,101163.98
2019-03-27T00:38:13.193Z,101165.77
2019-03-27T00:40:45.850Z,101172.24
2019-03-27T00:43:18.477Z,101172.27
2019-03-27T00:45:51.289Z,101177.00
2019-03-27T00:48:25.354Z,101184.70
2019-03-27T00:50:58.188Z,101180.91
2019-03-27T00:53:30.812Z,101186.55
2019-03-27T00:56:03.629Z,101184.90
2019-03-27T00:58:36.239Z,101183.14
2019-03-27T01:01:15.115Z,101189.13
2019-03-27T01:03:47.961Z,101188.67
2019-03-27T01:06:20.832Z,101187.83
2019-03-27T01:08:53.631Z,101197.73
2019-03-27T01:11:26.356Z,101200.33
2019-03-27T01:13:58.946Z,101210.27
2019-03-27T01:16:31.742Z,101210.28
2019-03-27T01:19:04.706Z,101212.86
2019-03-27T01:21:37.584Z,101219.78
2019-03-27T01:24:10.216Z,101223.20
2019-03-27T01:26:42.869Z,101222.75
2019-03-27T01:29:15.426Z,101230.11
2019-03-27T01:31:48.258Z,101230.52
2019-03-27T01:34:21.162Z,101227.52
2019-03-27T01:36:54.014Z,101236.13
2019-03-27T01:39:26.613Z,101237.03
2019-03-27T01:41:59.473Z,101242.14
2019-03-27T01:44:32.044Z,101251.64
2019-03-27T01:47:04.838Z,101248.23
2019-03-27T01:49:37.764Z,101254.28
2019-03-27T01:52:11.020Z,101258.63
2019-03-27T01:54:43.584Z,101262.51
2019-03-27T01:57:16.279Z,101270.66
2019-03-27T01:59:48.872Z,101277.17
2019-03-27T02:02:21.522Z,101275.86
2019-03-27T02:04:54.373Z,101278.85
2019-03-27T02:07:27.331Z,101280.16
2019-03-27T02:09:59.922Z,101277.19
2019-03-27T02:12:32.633Z,101285.38
2019-03-27T02:15:05.487Z,101287.12
2019-03-27T02:17:38.538Z,101291.84
2019-03-27T02:20:11.811Z,101294.88
2019-03-27T02:22:44.618Z,101291.45
2019-03-27T02:25:17.231Z,101300.89
2019-03-27T02:27:49.911Z,101298.75
2019-03-27T02:30:22.524Z,101301.34
2019-03-27T02:32:55.465Z,101302.69
2019-03-27T02:35:28.585Z,101309.98
2019-03-27T02:38:01.428Z,101304.38
2019-03-27T02:40:34.174Z,101305.22
2019-03-27T02:43:06.898Z,101306.09
2019-03-27T02:45:39.457Z,101308.64
2019-03-27T02:48:14.152Z,101308.25
2019-03-27T02:50:46.805Z,101313.01
2019-03-27T02:53:19.498Z,101324.64
2019-03-27T02:55:52.058Z,101323.80
2019-03-27T02:58:24.766Z,101330.69
2019-03-27T03:00:57.334Z,101338.44
2019-03-27T03:03:30.450Z,101335.86
2019-03-27T03:06:03.275Z,101347.03
2019-03-27T03:08:36.055Z,101351.34
2019-03-27T03:11:08.681Z,101355.66
2019-03-27T03:13:41.633Z,101356.06
2019-03-27T03:16:14.233Z,101365.09
2019-03-27T03:18:47.992Z,101372.84
2019-03-27T03:21:20.825Z,101378.89
2019-03-27T03:23:55.033Z,101384.90
2019-03-27T03:26:27.745Z,101392.23
2019-03-27T03:29:00.868Z,101384.93
2019-03-27T03:31:33.463Z,101401.70
2019-03-27T03:34:06.481Z,101399.97
2019-03-27T03:36:39.390Z,101400.82
2019-03-27T03:39:12.011Z,101406.42
2019-03-27T03:41:44.653Z,101412.45
2019-03-27T03:44:17.458Z,101419.34
2019-03-27T03:46:59.536Z,101414.59
2019-03-27T03:49:24.663Z,101417.63
2019-03-27T03:51:58.228Z,101423.66
2019-03-27T03:54:31.163Z,101426.23
2019-03-27T03:57:05.852Z,101427.08
2019-03-27T03:59:40.527Z,101428.37
2019-03-27T04:02:16.117Z,101433.53
2019-03-27T04:04:50.681Z,101428.80
2019-03-27T04:07:23.512Z,101431.83
2019-03-27T04:09:56.252Z,101442.11
2019-03-27T04:12:28.826Z,101441.27
2019-03-27T04:15:01.472Z,101442.56
2019-03-27T04:17:34.153Z,101449.02
2019-03-27T04:20:07.795Z,101452.44
2019-03-27T04:22:40.634Z,101461.48
2019-03-27T04:25:13.634Z,101464.06
2019-03-27T04:27:47.629Z,101470.09
2019-03-27T04:30:20.348Z,101472.24
2019-03-27T04:32:52.972Z,101471.81
2019-03-27T04:35:25.612Z,101474.37
2019-03-27T04:37:58.746Z,101479.95
2019-03-27T04:40:31.433Z,101482.13
2019-03-27T04:43:04.084Z,101487.70
2019-03-27T04:45:49.205Z,101486.41
2019-03-27T04:48:21.803Z,101495.45
2019-03-27T04:50:54.464Z,101494.61
2019-03-27T04:53:27.063Z,101500.61
2019-03-27T04:56:01.189Z,101509.66
2019-03-27T04:58:33.817Z,101513.94
2019-03-27T05:01:06.756Z,101513.53
2019-03-27T05:03:40.551Z,101512.23
2019-03-27T05:06:13.184Z,101518.70
2019-03-27T05:08:46.025Z,101515.23
2019-03-27T05:11:18.766Z,101507.92
2019-03-27T05:13:51.346Z,101512.24
2019-03-27T05:16:23.999Z,101518.69
2019-03-27T05:18:56.557Z,101515.25
2019-03-27T05:21:29.183Z,101512.66
2019-03-27T05:24:01.755Z,101506.19
2019-03-27T05:26:34.697Z,101516.97
2019-03-27T05:29:07.282Z,101519.11
2019-03-27T05:31:40.153Z,101519.09
2019-03-27T05:34:13.741Z,101522.97
2019-03-27T05:36:46.637Z,101522.53
2019-03-27T05:39:19.695Z,101528.98
2019-03-27T05:41:52.715Z,101534.56
2019-03-27T05:44:25.315Z,101537.59
2019-03-27T05:46:58.086Z,101537.12
2019-03-27T05:49:30.677Z,101532.77
2019-03-27T05:52:03.484Z,101537.48
2019-03-27T05:54:36.127Z,101545.63
2019-03-27T05:57:08.753Z,101549.89
2019-03-27T05:59:41.400Z,101561.12
2019-03-27T06:02:14.123Z,101555.89
2019-03-27T06:04:46.789Z,101570.92
2019-03-27T06:07:19.359Z,101566.17
2019-03-27T06:09:52.015Z,101566.11
2019-03-27T06:12:24.631Z,101572.96
2019-03-27T06:14:57.240Z,101571.66
2019-03-27T06:17:29.898Z,101567.30
2019-03-27T06:20:02.519Z,101569.79
2019-03-27T06:22:35.410Z,101571.45
2019-03-27T06:25:08.202Z,101574.84
2019-03-27T06:27:40.934Z,101575.59
2019-03-27T06:30:16.035Z,101578.55
2019-03-27T06:32:48.648Z,101587.44
2019-03-27T06:35:21.812Z,101589.89
2019-03-27T06:37:54.566Z,101591.09
2019-03-27T06:40:28.498Z,101597.40
2019-03-27T06:43:01.547Z,101586.96
2019-03-27T06:45:34.134Z,101606.95
2019-03-27T06:48:07.115Z,101617.62
2019-03-27T06:50:39.712Z,101602.80
2019-03-27T06:53:12.684Z,101609.63
2019-03-27T06:55:45.394Z,101600.84
2019-03-27T06:58:18.088Z,101593.63
2019-03-27T07:00:50.693Z,101593.55
2019-03-27T07:03:23.344Z,101597.62
2019-03-27T07:05:55.919Z,101604.03
2019-03-27T07:08:28.944Z,101607.55
2019-03-27T07:11:01.738Z,101608.34
2019-03-27T07:13:34.542Z,101608.76
2019-03-27T07:16:07.238Z,101609.23
2019-03-27T07:18:40.712Z,101614.16
2019-03-27T07:21:13.579Z,101621.86
2019-03-27T07:23:46.602Z,101621.27
2019-03-27T07:26:19.610Z,101636.11
2019-03-27T07:28:52.252Z,101634.67
2019-03-27T07:31:24.873Z,101641.40
2019-03-27T07:33:57.711Z,101639.87
2019-03-27T07:36:30.362Z,101645.98
2019-03-27T07:39:11.056Z,101653.89
2019-03-27T07:41:37.612Z,101644.89
2019-03-27T07:44:10.498Z,101640.73
2019-03-27T07:46:43.070Z,101639.18
2019-03-27T07:49:15.951Z,101640.48
2019-03-27T07:51:48.624Z,101636.85
2019-03-27T07:54:21.437Z,101636.76
2019-03-27T07:56:54.265Z,101635.95
2019-03-27T07:59:27.043Z,101633.35
2019-03-27T08:02:00.068Z,101633.61
2019-03-27T08:04:32.651Z,101643.87
2019-03-27T08:07:05.276Z,101633.35
2019-03-27T08:09:38.020Z,101646.41
2019-03-27T08:12:10.940Z,101645.65
2019-03-27T08:14:43.898Z,101648.96
2019-03-27T08:17:16.596Z,101647.64
2019-03-27T08:19:49.662Z,101651.76
2019-03-27T08:22:23.394Z,101652.41
2019-03-27T08:24:56.240Z,101648.88
2019-03-27T08:27:29.058Z,101652.06
2019-03-27T08:30:01.793Z,101655.97
2019-03-27T08:32:37.427Z,101657.56
2019-03-27T08:35:10.038Z,101658.59
2019-03-27T08:37:42.939Z,101664.94
2019-03-27T08:40:16.621Z,101658.25
2019-03-27T08:42:49.583Z,101656.14
2019-03-27T08:45:22.399Z,101662.92
2019-03-27T08:47:55.016Z,101660.30
2019-03-27T08:50:27.765Z,101667.53
2019-03-27T08:53:00.485Z,101671.58
2019-03-27T08:55:33.133Z,101670.41
2019-03-27T08:58:06.272Z,101671.12
2019-03-27T09:00:57.263Z,101669.38
2019-03-27T09:03:29.824Z,101669.05
2019-03-27T09:06:02.883Z,101665.13
2019-03-27T09:08:35.489Z,101669.56
2019-03-27T09:11:08.349Z,101664.67
2019-03-27T09:13:41.224Z,101678.41
2019-03-27T09:16:14.131Z,101674.45
2019-03-27T09:18:46.698Z,101667.70
2019-03-27T09:21:19.497Z,101668.47
2019-03-27T09:23:52.119Z,101668.17
2019-03-27T09:26:25.055Z,101671.50
2019-03-27T09:28:58.692Z,101668.71
2019-03-27T09:31:43.969Z,101672.05
2019-03-27T09:34:05.580Z,101661.30
2019-03-27T09:36:38.435Z,101667.45
2019-03-27T09:39:12.583Z,101669.91
2019-03-27T09:41:45.440Z,101668.70
2019-03-27T09:44:18.511Z,101663.81
2019-03-27T09:46:51.255Z,101669.77
2019-03-27T09:49:23.893Z,101665.25
2019-03-27T09:51:57.698Z,101669.03
2019-03-27T09:54:30.309Z,101665.68
2019-03-27T09:57:03.756Z,101664.97
2019-03-27T09:59:36.362Z,101663.58
2019-03-27T10:02:09.212Z,101662.16
2019-03-27T10:04:41.827Z,101662.00
2019-03-27T10:07:14.701Z,101663.03
2019-03-27T10:09:50.204Z,101663.27
2019-03-27T10:12:21.664Z,101666.12
2019-03-27T10:14:54.607Z,101660.16
2019-03-27T10:17:27.351Z,101667.17
2019-03-27T10:20:03.523Z,101663.50
2019-03-27T10:22:34.565Z,101665.09
2019-03-27T10:25:08.563Z,101666.67
2019-03-27T10:27:41.253Z,101664.67
2019-03-27T10:30:14.525Z,101649.66
2019-03-27T10:32:47.168Z,101657.63
2019-03-27T10:35:22.516Z,101655.39
2019-03-27T10:37:55.469Z,101648.45
2019-03-27T10:40:28.042Z,101645.81
2019-03-27T10:43:00.819Z,101650.80
2019-03-27T10:45:33.651Z,101653.87
2019-03-27T10:48:06.491Z,101653.65
2019-03-27T10:50:39.113Z,101653.36
2019-03-27T10:53:14.516Z,101656.25
2019-03-27T10:55:48.493Z,101654.27
2019-03-27T10:58:21.329Z,101656.14
2019-03-27T11:00:54.264Z,101656.66
2019-03-27T11:03:27.283Z,101659.66
2019-03-27T11:05:59.959Z,101666.26
2019-03-27T11:08:32.652Z,101644.09
2019-03-27T11:11:05.286Z,101636.84
2019-03-27T11:13:38.319Z,101643.73
2019-03-27T11:16:11.148Z,101649.19
2019-03-27T11:18:44.090Z,101645.64
2019-03-27T11:21:16.690Z,101631.62
2019-03-27T11:23:49.572Z,101639.92
2019-03-27T11:26:22.124Z,101641.78
2019-03-27T11:28:55.117Z,101642.97
2019-03-27T11:31:27.700Z,101636.33
2019-03-27T11:34:00.396Z,101641.84
2019-03-27T11:36:35.213Z,101638.19
2019-03-27T11:39:12.393Z,101638.08
2019-03-27T11:41:44.973Z,101626.16
2019-03-27T11:44:17.676Z,101634.86
2019-03-27T11:46:50.359Z,101637.48
2019-03-27T11:49:23.028Z,101625.53
2019-03-27T11:51:55.587Z,101622.64
2019-03-27T11:54:28.577Z,101616.68
2019-03-27T11:57:01.225Z,101608.20
2019-03-27T11:59:33.854Z,101597.20
2019-03-27T12:02:09.623Z,101592.77
2019-03-27T12:04:42.470Z,101587.44
2019-03-27T12:07:16.137Z,101590.62
2019-03-27T12:09:48.833Z,101585.72
2019-03-27T12:12:21.432Z,101590.79
2019-03-27T12:14:54.173Z,101587.36
2019-03-27T12:17:26.770Z,101579.17
2019-03-27T12:19:59.674Z,101588.81
2019-03-27T12:22:32.431Z,101594.28
2019-03-27T12:25:06.966Z,101600.59
2019-03-27T12:27:42.284Z,101595.41
2019-03-27T12:30:15.103Z,101604.86
2019-03-27T12:32:49.178Z,101608.60
2019-03-27T12:35:22.013Z,101607.03
2019-03-27T12:37:54.863Z,101601.78
2019-03-27T12:43:06.515Z,101597.36
2019-03-27T12:45:39.137Z,101607.11
2019-03-27T12:48:14.288Z,101599.66
2019-03-27T12:50:46.671Z,101593.02
2019-03-27T12:53:19.488Z,101597.02
2019-03-27T12:55:52.158Z,101592.77
2019-03-27T12:58:24.890Z,101582.64
2019-03-27T13:00:57.552Z,101582.14
2019-03-27T13:03:30.509Z,101590.78
2019-03-27T13:06:03.157Z,101576.63
2019-03-27T13:08:39.121Z,101581.20
2019-03-27T13:11:11.785Z,101588.55
2019-03-27T13:13:44.486Z,101567.73
2019-03-27T13:16:17.124Z,101582.08
2019-03-27T13:18:49.946Z,101584.62
2019-03-27T13:21:26.584Z,101580.01
2019-03-27T13:23:56.907Z,101576.23
2019-03-27T13:26:29.577Z,101575.10
2019-03-27T13:29:02.266Z,101575.19
2019-03-27T13:31:34.878Z,101574.65
2019-03-27T13:34:08.082Z,101566.08
2019-03-27T13:36:45.827Z,101563.86
2019-03-27T13:39:18.598Z,101560.59
2019-03-27T13:41:51.232Z,101557.98
2019-03-27T13:44:36.382Z,101557.91
2019-03-27T13:46:58.450Z,101558.35
2019-03-27T13:49:31.654Z,101555.64
2019-03-27T13:52:04.262Z,101549.66
2019-03-27T13:54:37.131Z,101551.21
2019-03-27T13:57:09.728Z,101545.04
2019-03-27T13:59:42.438Z,101546.22
2019-03-27T14:02:15.125Z,101539.64
2019-03-27T14:04:47.993Z,101558.39
2019-03-27T14:07:20.601Z,101538.80
2019-03-27T14:09:53.164Z,101529.80
2019-03-27T14:12:25.835Z,101527.80
2019-03-27T14:14:59.747Z,101524.09
2019-03-27T14:17:32.354Z,101528.93
2019-03-27T14:20:06.087Z,101531.48
2019-03-27T14:22:39.686Z,101530.77
2019-03-27T14:25:14.210Z,101532.58
2019-03-27T14:27:46.814Z,101526.20
2019-03-27T14:30:51.458Z,101524.91
2019-03-27T14:33:24.494Z,101529.25
2019-03-27T14:36:03.130Z,101523.97
2019-03-27T14:38:35.728Z,101512.17
2019-03-27T14:41:08.682Z,101512.08
2019-03-27T14:43:41.279Z,101522.77
2019-03-27T14:46:14.154Z,101518.64
2019-03-27T14:48:46.757Z,101502.98
2019-03-27T14:51:19.928Z,101506.04
2019-03-27T14:53:52.561Z,101504.70
2019-03-27T14:56:25.299Z,101503.00
2019-03-27T14:58:57.896Z,101500.80
2019-03-27T15:01:30.963Z,101506.97
2019-03-27T15:04:03.596Z,101506.71
2019-03-27T15:06:36.277Z,101515.06
2019-03-27T15:09:10.398Z,101508.05
2019-03-27T15:11:43.208Z,101506.41
2019-03-27T15:14:15.797Z,101504.14
2019-03-27T15:16:48.572Z,101500.30
2019-03-27T15:19:21.485Z,101505.27
2019-03-27T15:21:54.968Z,101507.67
2019-03-27T15:24:27.680Z,101492.61
2019-03-27T15:27:00.542Z,101505.59
2019-03-27T15:29:33.106Z,101498.59
2019-03-27T15:32:06.295Z,101517.93
2019-03-27T15:34:38.938Z,101504.79
2019-03-27T15:37:11.972Z,101497.23
2019-03-27T15:39:44.537Z,101508.36
2019-03-27T15:42:17.432Z,101510.20
2019-03-27T15:44:50.090Z,101505.78
2019-03-27T15:47:23.008Z,101511.50
2019-03-27T15:49:55.660Z,101510.99
2019-03-27T15:52:36.510Z,101510.61
2019-03-27T15:55:03.195Z,101512.82
2019-03-27T15:57:36.083Z,101521.22
2019-03-27T16:00:09.748Z,101515.45
2019-03-27T16:02:43.115Z,101515.35
2019-03-27T16:05:15.809Z,101508.16
2019-03-27T16:07:48.735Z,101505.80
2019-03-27T16:10:21.297Z,101508.52
2019-03-27T16:12:54.343Z,101512.84
2019-03-27T16:15:26.930Z,101503.15
2019-03-27T16:17:59.872Z,101510.72
2019-03-27T16:20:32.533Z,101514.30
2019-03-27T16:23:05.751Z,101514.97
2019-03-27T16:25:38.555Z,101513.61
2019-03-27T16:28:11.735Z,101512.55
2019-03-27T16:30:44.402Z,101507.78
2019-03-27T16:33:17.018Z,101512.88
2019-03-27T16:35:49.635Z,101510.84
2019-03-27T16:38:22.693Z,101514.71
2019-03-27T16:40:55.299Z,101513.93
2019-03-27T16:43:27.973Z,101517.20
2019-03-27T16:46:00.593Z,101512.80
2019-03-27T16:48:35.551Z,101506.52
2019-03-27T16:51:08.177Z,101516.13
2019-03-27T16:53:41.183Z,101519.16
2019-03-27T16:56:14.265Z,101519.26
2019-03-27T16:58:46.883Z,101508.69
2019-03-27T17:01:19.478Z,101512.88
2019-03-27T17:03:52.429Z,101516.44
2019-03-27T17:06:25.063Z,101511.11
2019-03-27T17:08:57.881Z,101515.77
2019-03-27T17:11:31.891Z,101520.43
2019-03-27T17:14:04.547Z,101520.25
2019-03-27T17:16:37.154Z,101516.97
2019-03-27T17:19:09.852Z,101522.20
2019-03-27T17:21:42.473Z,101530.02
2019-03-27T17:24:17.533Z,101528.59
2019-03-27T17:26:50.282Z,101530.42
2019-03-27T17:29:25.930Z,101529.58
2019-03-27T17:31:58.530Z,101532.43
2019-03-27T17:34:32.746Z,101534.53
2019-03-27T17:37:05.384Z,101527.51
2019-03-27T17:39:38.356Z,101532.49
2019-03-27T17:42:11.098Z,101536.95
2019-03-27T17:44:44.020Z,101537.30
2019-03-27T17:47:16.639Z,101537.67
2019-03-27T17:49:49.479Z,101541.55
2019-03-27T17:52:23.258Z,101546.00
2019-03-27T17:54:56.260Z,101542.24
2019-03-27T17:57:28.996Z,101537.94
2019-03-27T18:00:01.660Z,101541.31
2019-03-27T18:02:35.916Z,101542.73
2019-03-27T18:05:08.959Z,101545.09
2019-03-27T18:07:41.631Z,101548.34
2019-03-27T18:10:22.789Z,101545.47
2019-03-27T18:12:55.415Z,101553.08
2019-03-27T18:15:28.263Z,101546.02
2019-03-27T18:18:01.024Z,101556.95
2019-03-27T18:20:33.928Z,101557.00
2019-03-27T18:23:08.698Z,101559.11
2019-03-27T18:25:44.123Z,101560.61
2019-03-27T18:28:17.010Z,101559.73
2019-03-27T18:30:49.975Z,101558.72
2019-03-27T18:33:22.670Z,101560.13
2019-03-27T18:35:58.010Z,101554.62
2019-03-27T18:38:30.791Z,101552.05
2019-03-27T18:41:03.766Z,101560.42
2019-03-27T18:43:36.513Z,101559.16
2019-03-27T18:46:09.436Z,101557.91
2019-03-27T18:48:42.073Z,101562.03
2019-03-27T18:51:15.023Z,101563.16
2019-03-27T18:53:59.072Z,101562.89
2019-03-27T18:56:31.116Z,101562.94
2019-03-27T18:59:03.876Z,101565.55
2019-03-27T19:01:36.908Z,101564.86
2019-03-27T19:04:09.578Z,101559.77
2019-03-27T19:06:42.557Z,101556.55
2019-03-27T19:09:15.259Z,101561.16
2019-03-27T19:11:48.079Z,101562.47
2019-03-27T19:14:22.010Z,101560.55
2019-03-27T19:16:54.928Z,101562.58
2019-03-27T19:19:27.602Z,101559.75
2019-03-27T19:22:01.064Z,101555.42
2019-03-27T19:24:34.195Z,101557.94
2019-03-27T19:27:07.346Z,101555.73
2019-03-27T19:29:44.957Z,101554.91
2019-03-27T19:32:18.503Z,101547.74
2019-03-27T19:34:51.299Z,101551.54
2019-03-27T19:37:24.455Z,101548.77
2019-03-27T19:40:01.147Z,101545.69
2019-03-27T19:42:34.319Z,101547.72
2019-03-27T19:45:07.821Z,101550.20
2019-03-27T19:47:40.904Z,101547.25
2019-03-27T19:50:13.752Z,101547.59
2019-03-27T19:52:46.804Z,101547.80
2019-03-27T19:55:19.526Z,101553.73
2019-03-27T19:57:52.292Z,101552.17
2019-03-27T20:00:26.043Z,101551.17
2019-03-27T20:02:59.062Z,101555.05
2019-03-27T20:05:31.706Z,101549.41
2019-03-27T20:08:04.728Z,101552.17
2019-03-27T20:10:37.549Z,101551.23
2019-03-27T20:13:10.767Z,101551.84
2019-03-27T20:15:43.858Z,101551.23
2019-03-27T20:18:21.855Z,101548.15
2019-03-27T20:20:54.840Z,101550.41
2019-03-27T20:23:27.544Z,101550.90
2019-03-27T20:26:00.212Z,101551.11
2019-03-27T20:28:33.435Z,101546.28
2019-03-27T20:31:06.106Z,101544.41
2019-03-27T20:33:39.098Z,101545.84
2019-03-27T20:36:13.146Z,101550.10
2019-03-27T20:38:46.492Z,101555.65
2019-03-27T20:41:19.320Z,101560.19
2019-03-27T20:43:52.690Z,101558.23
2019-03-27T20:46:29.008Z,101560.11
2019-03-27T20:48:59.819Z,101552.53
2019-03-27T20:51:33.594Z,101555.02
2019-03-27T20:54:06.506Z,101549.31
2019-03-27T20:56:41.431Z,101548.02
2019-03-27T20:59:18.242Z,101546.93
2019-03-27T21:01:50.060Z,101547.27
2019-03-27T21:04:22.854Z,101541.44
2019-03-27T21:06:55.603Z,101543.48
2019-03-27T21:09:28.597Z,101545.63
2019-03-27T21:12:01.653Z,101543.25
2019-03-27T21:14:34.938Z,101546.93
2019-03-27T21:17:10.310Z,101543.58
2019-03-27T21:19:43.344Z,101540.86
2019-03-27T21:22:16.070Z,101546.51
2019-03-27T21:24:48.989Z,101541.44
2019-03-27T21:27:21.679Z,101543.20
2019-03-27T21:29:54.964Z,101538.20
2019-03-27T21:32:27.923Z,101547.31
2019-03-27T21:35:00.829Z,101546.10
2019-03-27T21:37:33.566Z,101546.93
2019-03-27T21:40:08.011Z,101548.06
2019-03-27T21:42:43.127Z,101549.08
2019-03-27T21:45:15.974Z,101544.84
2019-03-27T21:47:48.608Z,101543.06
2019-03-27T21:50:22.562Z,101544.55
2019-03-27T21:53:00.774Z,101543.38
2019-03-27T21:55:41.920Z,101550.25
2019-03-27T21:58:04.172Z,101548.23
2019-03-27T22:00:41.779Z,101548.43
2019-03-27T22:03:14.509Z,101547.12
2019-03-27T22:05:47.381Z,101551.70
2019-03-27T22:08:20.110Z,101546.61
2019-03-27T22:10:52.805Z,101546.98
2019-03-27T22:13:25.475Z,101545.36
2019-03-27T22:16:03.675Z,101554.78
2019-03-27T22:18:36.282Z,101550.58
2019-03-27T22:21:09.264Z,101551.46
2019-03-27T22:23:43.889Z,101547.73
2019-03-27T22:26:16.610Z,101545.16
2019-03-27T22:28:49.238Z,101546.28
2019-03-27T22:31:22.244Z,101550.16
2019-03-27T22:33:54.849Z,101552.45
2019-03-27T22:36:27.519Z,101542.88
2019-03-27T22:39:00.129Z,101546.00
2019-03-27T22:41:34.994Z,101552.87
2019-03-27T22:44:07.715Z,101540.30
2019-03-27T22:46:41.202Z,101546.10
2019-03-27T22:49:13.919Z,101546.28
2019-03-27T22:51:46.838Z,101555.02
2019-03-27T22:54:19.451Z,101551.75
2019-03-27T22:56:52.343Z,101555.98
2019-03-27T22:59:25.089Z,101558.48
2019-03-27T23:01:58.391Z,101558.38
2019-03-27T23:04:31.262Z,101552.50
2019-03-27T23:07:04.076Z,101554.45
2019-03-27T23:09:36.792Z,101546.98
2019-03-27T23:12:09.722Z,101546.71
2019-03-27T23:14:42.391Z,101549.59
2019-03-27T23:17:15.499Z,101551.55
2019-03-27T23:19:51.410Z,101532.89
2019-03-27T23:22:25.972Z,101543.30
2019-03-27T23:24:58.568Z,101546.28
2019-03-27T23:27:31.649Z,101544.50
2019-03-27T23:30:05.385Z,101544.50
2019-03-27T23:32:38.721Z,101541.05
2019-03-27T23:35:11.859Z,101547.02
2019-03-27T23:37:47.033Z,101538.84
2019-03-27T23:40:19.714Z,101539.47
2019-03-27T23:42:52.425Z,101536.23
2019-03-27T23:45:25.142Z,101532.04
2019-03-27T23:47:58.404Z,101524.89
2019-03-27T23:50:31.099Z,101526.11
2019-03-27T23:53:04.938Z,101524.29
2019-03-27T23:55:38.517Z,101530.08
2019-03-27T23:58:11.291Z,101531.29
